Time;durP1;ratioP1;P1;durP2;ratioP2;P2;SDS_P1;SDS_P2;PMS_P1;PMS_P2;Temp;Humidity;BMP_temperature;BMP_pressure;BME280_temperature;BME280_humidity;BME280_pressure;Samples;Min_cycle;Max_cycle;Signal;HPM_P1;HPM_P2
2022/05/01 04:01:39;;;;;;;28.57;18.03;;;1.90;96.30;;;;;;5392316;23;20497;-76
2022/05/01 04:04:05;;;;;;;33.00;21.33;;;1.90;96.30;;;;;;4957465;28;20433;-77
2022/05/01 04:06:30;;;;;;;28.20;18.60;;;2.00;96.30;;;;;;4957079;29;20394;-74
2022/05/01 04:08:56;;;;;;;28.13;21.03;;;2.00;96.30;;;;;;4956592;29;20175;-76
2022/05/01 04:11:21;;;;;;;31.33;21.63;;;2.00;96.30;;;;;;4947319;29;20706;-76
2022/05/01 04:13:48;;;;;;;33.63;25.17;;;2.00;96.30;;;;;;4938410;29;20258;-72
2022/05/01 04:16:14;;;;;;;41.03;24.50;;;2.10;96.30;;;;;;4937967;29;20168;-72
2022/05/01 04:18:39;;;;;;;39.00;23.50;;;2.20;96.30;;;;;;4937325;29;20946;-72
2022/05/01 04:23:40;;;;;;;30.60;22.80;;;2.30;96.30;;;;;;5285655;23;20237;-72
2022/05/01 04:26:06;;;;;;;31.33;23.63;;;2.70;96.30;;;;;;4976346;28;20401;-72
2022/05/01 04:28:31;;;;;;;38.70;24.27;;;3.20;96.30;;;;;;4975578;28;20646;-72
2022/05/01 04:46:29;;;;;;;21.60;15.90;;;6.70;96.30;;;;;;5202322;23;20861;-76
2022/05/01 04:48:55;;;;;;;22.63;16.40;;;7.00;96.30;;;;;;4957024;28;20422;-75
2022/05/01 04:51:20;;;;;;;24.37;16.67;;;7.20;96.30;;;;;;4957687;28;20770;-75
2022/05/01 04:53:46;;;;;;;22.80;15.50;;;7.10;96.30;;;;;;4974616;28;20233;-77
2022/05/01 04:57:04;;;;;;;19.07;13.90;;;6.50;96.30;;;;;;4975176;28;20901;-76
2022/05/01 04:59:07;;;;;;;19.40;14.10;;;6.60;96.30;;;;;;4974279;28;20183;-76
2022/05/01 05:14:30;;;;;;;23.90;16.00;;;5.60;96.30;;;;;;6014749;23;20455;-71
2022/05/01 05:16:57;;;;;;;21.80;15.30;;;5.70;96.30;;;;;;4974549;28;20404;-71
2022/05/01 05:19:22;;;;;;;24.27;14.63;;;5.70;96.30;;;;;;4974081;28;20175;-72
2022/05/01 05:21:48;;;;;;;20.47;14.17;;;5.70;96.30;;;;;;4956990;28;20430;-72
2022/05/01 05:24:13;;;;;;;18.13;14.10;;;5.80;96.30;;;;;;4957102;28;20652;-72
2022/05/01 05:26:39;;;;;;;22.70;15.20;;;5.80;96.30;;;;;;4974784;28;20197;-71
2022/05/01 05:29:04;;;;;;;42.03;16.07;;;5.90;96.30;;;;;;4974954;28;20171;-72
2022/05/01 05:36:40;;;;;;;25.10;15.33;;;9.40;96.30;;;;;;5973126;23;20515;-76
2022/05/01 05:39:06;;;;;;;24.37;16.43;;;9.90;96.30;;;;;;4973666;28;20426;-76
2022/05/01 05:41:31;;;;;;;18.90;13.90;;;11.00;96.30;;;;;;4973751;28;20667;-76
2022/05/01 05:43:57;;;;;;;19.07;14.37;;;11.90;96.30;;;;;;4953406;28;20206;-76
2022/05/01 05:46:22;;;;;;;24.53;14.40;;;12.90;96.30;;;;;;4974269;28;20178;-76
2022/05/01 05:48:48;;;;;;;19.03;15.03;;;13.70;96.30;;;;;;4973439;28;20174;-74
2022/05/01 05:51:13;;;;;;;23.03;15.37;;;14.80;93.40;;;;;;4973901;28;20202;-77
2022/05/01 05:53:39;;;;;;;20.87;14.37;;;15.00;92.40;;;;;;4974025;28;20221;-76
2022/05/01 05:56:04;;;;;;;19.27;13.37;;;15.80;89.10;;;;;;4973927;28;20206;-75
2022/05/01 05:58:30;;;;;;;19.70;13.67;;;15.70;88.20;;;;;;4973388;28;20532;-76
2022/05/01 06:00:55;;;;;;;25.37;14.50;;;15.30;88.40;;;;;;4973925;28;20826;-77
2022/05/01 06:03:21;;;;;;;21.43;14.50;;;15.30;90.70;;;;;;4973524;28;20202;-77
2022/05/01 06:05:46;;;;;;;19.10;13.83;;;15.40;91.10;;;;;;4974023;28;20213;-75
2022/05/01 06:08:13;;;;;;;18.43;13.13;;;15.90;89.80;;;;;;4964632;28;20210;-77
2022/05/01 06:10:38;;;;;;;17.93;13.00;;;15.60;88.70;;;;;;4954125;29;20191;-76
2022/05/01 06:13:04;;;;;;;14.90;12.17;;;16.10;89.90;;;;;;4954328;29;20948;-77
2022/05/01 06:15:30;;;;;;;16.00;13.30;;;16.20;86.10;;;;;;4954372;29;20179;-76
2022/05/01 06:17:55;;;;;;;16.10;12.43;;;16.80;86.90;;;;;;4953679;29;20179;-76
2022/05/01 06:20:21;;;;;;;19.83;13.27;;;16.80;86.20;;;;;;4953654;28;20210;-76
2022/05/01 06:22:50;;;;;;;18.50;13.63;;;18.10;82.00;;;;;;4954287;29;20226;-76
2022/05/01 06:25:16;;;;;;;18.57;13.83;;;18.20;81.80;;;;;;4954360;28;20564;-76
2022/05/01 06:27:41;;;;;;;27.70;15.10;;;18.10;83.10;;;;;;4955726;28;20449;-76
2022/05/01 06:30:10;;;;;;;15.83;13.13;;;18.40;81.50;;;;;;4956982;29;20423;-75
2022/05/01 06:32:35;;;;;;;19.30;15.20;;;17.50;84.20;;;;;;4956812;29;20175;-75
2022/05/01 06:35:02;;;;;;;20.13;14.70;;;18.20;86.10;;;;;;4956820;28;20417;-75
2022/05/01 06:37:29;;;;;;;20.30;14.10;;;19.00;87.60;;;;;;4957018;28;20205;-75
2022/05/01 06:39:54;;;;;;;17.57;15.07;;;20.20;84.50;;;;;;4963486;28;20420;-74
2022/05/01 06:42:20;;;;;;;22.47;14.83;;;20.60;82.20;;;;;;4992286;28;20521;-74
2022/05/01 06:44:45;;;;;;;24.57;15.30;;;20.80;78.90;;;;;;4992256;28;20181;-73
2022/05/01 06:47:13;;;;;;;16.23;14.53;;;21.20;79.00;;;;;;4979619;28;20237;-74
2022/05/01 06:49:38;;;;;;;17.90;12.90;;;20.60;80.80;;;;;;4952708;28;20591;-74
2022/05/01 06:52:04;;;;;;;21.00;12.93;;;21.10;77.10;;;;;;4953794;28;20496;-75
2022/05/01 06:54:30;;;;;;;15.30;12.50;;;21.80;78.40;;;;;;4953755;29;20584;-74
2022/05/01 06:56:55;;;;;;;16.10;13.20;;;21.70;80.00;;;;;;4936826;29;20178;-74
2022/05/01 06:59:21;;;;;;;16.83;13.47;;;21.70;79.90;;;;;;4953232;29;20232;-74
2022/05/01 07:01:47;;;;;;;15.07;13.27;;;21.90;79.20;;;;;;4953781;29;20209;-76
2022/05/01 07:04:13;;;;;;;16.47;13.60;;;22.00;79.90;;;;;;4954689;28;20206;-75
2022/05/01 07:06:40;;;;;;;15.43;13.03;;;22.60;79.50;;;;;;4973264;28;20401;-75
2022/05/01 07:09:06;;;;;;;17.93;15.30;;;23.00;77.90;;;;;;4972643;28;20413;-74
2022/05/01 07:11:32;;;;;;;16.90;13.30;;;23.20;77.80;;;;;;4955574;28;20460;-75
2022/05/01 07:13:57;;;;;;;18.20;14.07;;;24.10;74.00;;;;;;4973168;28;20173;-74
2022/05/01 07:16:23;;;;;;;18.27;14.00;;;24.10;74.30;;;;;;4973162;28;20197;-75
2022/05/01 07:18:48;;;;;;;19.73;12.90;;;23.60;75.30;;;;;;4972380;28;20575;-78
2022/05/01 07:21:14;;;;;;;16.10;13.97;;;23.30;78.40;;;;;;4973029;28;20284;-74
2022/05/01 07:23:40;;;;;;;19.83;15.13;;;23.30;75.00;;;;;;4974529;28;20237;-78
2022/05/01 07:26:05;;;;;;;18.50;16.10;;;23.90;76.40;;;;;;4974789;28;20224;-77
2022/05/01 07:28:32;;;;;;;20.30;16.43;;;24.00;73.40;;;;;;4974136;28;20178;-77
2022/05/01 07:30:59;;;;;;;20.43;14.70;;;24.10;72.50;;;;;;4975775;28;20212;-77
2022/05/01 07:33:25;;;;;;;18.10;16.10;;;24.10;73.70;;;;;;4980291;28;20423;-78
2022/05/01 07:35:50;;;;;;;21.60;16.20;;;22.60;74.10;;;;;;4982012;28;20416;-78
2022/05/01 07:38:17;;;;;;;17.93;15.73;;;22.10;73.50;;;;;;4980852;28;20259;-77
2022/05/01 07:40:43;;;;;;;19.53;14.70;;;21.50;76.70;;;;;;4977137;28;20197;-77
2022/05/01 07:43:10;;;;;;;19.50;16.13;;;22.00;78.10;;;;;;4959742;28;20482;-77
2022/05/01 07:45:35;;;;;;;20.17;15.40;;;23.20;75.50;;;;;;4961139;28;20513;-77
2022/05/01 07:48:01;;;;;;;24.30;15.30;;;22.60;73.80;;;;;;4976216;28;20419;-77
2022/05/01 07:50:27;;;;;;;21.33;16.10;;;22.30;77.00;;;;;;4962691;28;20192;-76
2022/05/01 07:52:53;;;;;;;21.63;16.07;;;22.50;73.80;;;;;;4966247;28;20532;-77
2022/05/01 07:55:19;;;;;;;21.83;17.27;;;21.80;80.10;;;;;;4966294;28;20413;-77
2022/05/01 07:57:45;;;;;;;20.33;16.50;;;22.80;76.30;;;;;;4967253;28;20190;-77
2022/05/01 08:00:13;;;;;;;22.17;17.97;;;23.50;73.50;;;;;;4967389;28;20256;-78
2022/05/01 08:05:24;;;;;;;20.83;16.33;;;23.80;77.50;;;;;;4967479;28;20481;-77
2022/05/01 08:07:52;;;;;;;20.00;16.80;;;22.20;79.60;;;;;;4965889;28;20413;-78
2022/05/01 08:10:18;;;;;;;19.03;16.40;;;23.00;77.60;;;;;;4966303;28;20920;-79
2022/05/01 08:12:44;;;;;;;24.30;16.60;;;21.50;76.70;;;;;;4967851;28;20484;-77
2022/05/01 08:15:09;;;;;;;17.97;16.00;;;22.20;75.00;;;;;;4965573;28;20597;-77
2022/05/01 08:17:35;;;;;;;20.03;16.90;;;22.80;81.60;;;;;;4976240;28;20225;-77
2022/05/01 08:22:45;;;;;;;23.00;16.97;;;21.40;77.80;;;;;;4956823;29;20285;-74
2022/05/01 08:25:11;;;;;;;24.13;16.00;;;21.80;76.00;;;;;;4956650;29;20441;-74
2022/05/01 08:27:38;;;;;;;22.90;16.90;;;22.20;80.60;;;;;;4956580;29;20170;-74
2022/05/01 08:30:07;;;;;;;20.27;15.90;;;22.60;77.40;;;;;;4972693;28;20632;-77
2022/05/01 08:32:33;;;;;;;20.57;15.10;;;23.50;79.70;;;;;;4977161;28;20432;-77
2022/05/01 08:34:59;;;;;;;17.90;14.80;;;23.60;76.70;;;;;;4959147;28;20424;-78
2022/05/01 08:37:24;;;;;;;20.47;13.90;;;22.60;72.00;;;;;;4976567;28;20239;-75
2022/05/01 08:39:49;;;;;;;22.40;13.73;;;22.40;75.30;;;;;;4959189;28;20173;-77
2022/05/01 08:42:15;;;;;;;19.00;12.33;;;22.60;80.00;;;;;;4975804;28;20210;-78
2022/05/01 08:44:40;;;;;;;15.00;11.80;;;23.10;76.80;;;;;;4965400;28;20186;-77
2022/05/01 08:47:23;;;;;;;13.27;11.43;;;22.80;71.80;;;;;;4966264;28;20182;-76
2022/05/01 08:49:52;;;;;;;13.80;11.80;;;21.90;75.70;;;;;;4956453;29;20328;-77
2022/05/01 08:52:21;;;;;;;15.60;10.93;;;21.60;74.60;;;;;;4956199;29;20511;-76
2022/05/01 08:54:47;;;;;;;16.30;11.80;;;22.10;76.30;;;;;;4956827;29;20426;-77
2022/05/01 08:57:14;;;;;;;19.70;12.13;;;21.80;72.50;;;;;;4956474;29;20450;-78
2022/05/01 08:59:41;;;;;;;18.23;10.80;;;21.90;75.50;;;;;;4956048;29;20415;-77
2022/05/01 09:02:10;;;;;;;13.70;9.10;;;21.60;74.60;;;;;;4941140;29;20454;-77
2022/05/01 09:04:36;;;;;;;13.23;9.60;;;21.40;75.30;;;;;;4969992;28;20418;-78
2022/05/01 09:07:02;;;;;;;16.80;10.00;;;21.50;75.20;;;;;;4975452;28;20414;-77
2022/05/01 09:09:27;;;;;;;12.77;8.80;;;21.50;71.60;;;;;;4973552;28;20422;-77
2022/05/01 09:14:40;;;;;;;13.77;9.87;;;20.90;73.60;;;;;;4975622;28;20193;-77
2022/05/01 09:17:16;;;;;;;13.80;9.27;;;20.90;75.60;;;;;;4975027;28;20426;-77
2022/05/01 09:19:44;;;;;;;13.13;10.20;;;19.90;78.80;;;;;;4974945;28;20517;-76
2022/05/01 09:22:11;;;;;;;14.10;9.43;;;21.00;80.30;;;;;;4974879;28;20453;-76
2022/05/01 09:24:37;;;;;;;16.43;9.93;;;21.80;79.30;;;;;;4971322;28;20450;-77
2022/05/01 09:27:04;;;;;;;12.70;8.93;;;22.10;78.70;;;;;;4968193;28;20437;-75
2022/05/01 09:29:34;;;;;;;14.73;8.60;;;22.10;75.90;;;;;;4972802;28;20418;-75
2022/05/01 09:32:01;;;;;;;15.63;9.30;;;22.60;71.90;;;;;;4992788;28;20212;-76
2022/05/01 09:34:31;;;;;;;10.13;9.00;;;21.50;71.90;;;;;;4993058;28;20455;-76
2022/05/01 09:36:58;;;;;;;11.57;8.43;;;20.90;77.00;;;;;;4994066;28;20413;-76
2022/05/01 09:39:29;;;;;;;12.80;9.00;;;21.30;76.20;;;;;;4993247;28;20413;-76
2022/05/01 09:42:11;;;;;;;11.20;9.73;;;21.40;80.90;;;;;;4967391;28;20434;-76
2022/05/01 09:44:37;;;;;;;13.07;9.70;;;21.70;80.00;;;;;;4973552;28;20449;-75
2022/05/01 09:47:02;;;;;;;11.47;9.50;;;21.80;76.50;;;;;;4973729;28;20951;-75
2022/05/01 09:49:28;;;;;;;17.50;9.47;;;21.80;75.40;;;;;;4973464;28;20166;-75
2022/05/01 09:51:55;;;;;;;10.73;9.33;;;21.00;78.70;;;;;;4973356;28;20205;-75
2022/05/01 09:54:23;;;;;;;9.60;7.63;;;19.60;76.60;;;;;;4953129;28;20214;-74
2022/05/01 09:56:54;;;;;;;11.93;7.63;;;19.70;80.70;;;;;;4937108;29;20414;-74
2022/05/01 09:59:21;;;;;;;10.80;8.53;;;20.10;76.80;;;;;;4954196;29;20406;-75
2022/05/01 10:02:04;;;;;;;13.93;8.07;;;19.90;77.20;;;;;;4954113;29;20429;-74
2022/05/01 10:04:34;;;;;;;13.33;8.47;;;19.90;75.10;;;;;;4964206;28;20434;-75
2022/05/01 10:07:01;;;;;;;12.63;7.30;;;20.00;74.70;;;;;;4973205;28;20805;-75
2022/05/01 10:09:28;;;;;;;9.37;7.70;;;18.90;75.60;;;;;;4969517;28;20473;-75
2022/05/01 10:11:55;;;;;;;10.63;8.40;;;19.60;82.30;;;;;;4965122;28;20457;-75
2022/05/01 10:14:22;;;;;;;13.13;8.50;;;19.80;81.20;;;;;;4973373;28;20417;-75
2022/05/01 10:16:48;;;;;;;8.23;7.27;;;20.80;84.60;;;;;;4973819;28;20405;-75
2022/05/01 10:19:20;;;;;;;9.97;7.57;;;20.10;78.90;;;;;;4973147;28;20401;-75
2022/05/01 10:21:51;;;;;;;9.63;7.20;;;20.20;78.40;;;;;;4973102;28;20468;-77
2022/05/01 10:24:18;;;;;;;10.53;7.23;;;20.30;78.80;;;;;;4973568;28;20509;-75
2022/05/01 10:27:19;;;;;;;10.83;6.60;;;20.30;79.10;;;;;;4973170;28;20480;-76
2022/05/01 10:33:07;;;;;;;10.23;6.40;;;19.80;79.50;;;;;;4971906;28;20413;-76
2022/05/01 10:35:52;;;;;;;8.47;7.60;;;19.10;77.10;;;;;;4965673;28;20413;-76
2022/05/01 10:38:41;;;;;;;8.07;7.17;;;18.20;76.90;;;;;;4939713;28;984274;-76
2022/05/01 10:41:10;;;;;;;15.20;8.30;;;17.80;77.80;;;;;;4973713;28;20253;-76
2022/05/01 10:43:37;;;;;;;7.87;7.10;;;18.50;78.90;;;;;;4973598;28;20560;-77
2022/05/01 10:46:05;;;;;;;8.20;6.57;;;18.60;78.20;;;;;;4973702;28;20409;-75
2022/05/01 10:48:34;;;;;;;8.07;6.73;;;18.90;76.10;;;;;;4973355;28;20824;-75
2022/05/01 10:51:27;;;;;;;10.93;7.00;;;19.30;75.10;;;;;;4971351;28;20917;-75
2022/05/01 10:54:12;;;;;;;9.53;7.30;;;19.10;77.80;;;;;;4968805;28;20958;-75
2022/05/01 10:56:38;;;;;;;7.20;6.50;;;17.90;76.80;;;;;;4965377;28;20775;-76
2022/05/01 10:59:35;;;;;;;9.63;7.00;;;17.80;75.60;;;;;;4972940;28;20446;-77
2022/05/01 11:02:25;;;;;;;12.10;7.50;;;17.80;78.70;;;;;;4972893;28;20972;-78
2022/05/01 11:04:52;;;;;;;9.37;8.10;;;18.30;74.90;;;;;;4968500;28;20445;-76
2022/05/01 11:07:18;;;;;;;10.23;7.50;;;19.40;81.80;;;;;;4962309;28;20434;-75
2022/05/01 11:09:49;;;;;;;15.77;7.70;;;20.00;76.20;;;;;;4973136;28;20424;-75
2022/05/01 11:12:22;;;;;;;11.83;8.30;;;20.00;77.50;;;;;;4969223;28;20195;-75
2022/05/01 11:14:54;;;;;;;8.13;7.00;;;19.60;79.50;;;;;;4973194;28;20793;-75
2022/05/01 11:17:42;;;;;;;11.53;6.60;;;19.20;78.40;;;;;;4969996;28;20433;-75
2022/05/01 11:20:23;;;;;;;12.90;7.40;;;19.60;78.90;;;;;;4969268;28;20492;-75
2022/05/01 11:22:49;;;;;;;10.17;6.70;;;19.80;78.40;;;;;;4973235;28;20882;-75
2022/05/01 11:25:38;;;;;;;8.10;6.27;;;18.60;79.80;;;;;;4973082;28;20918;-76
2022/05/01 11:28:04;;;;;;;12.03;8.10;;;17.90;78.50;;;;;;4972889;28;20453;-77
2022/05/01 11:30:31;;;;;;;11.60;6.50;;;17.70;78.30;;;;;;4973151;28;20441;-75
2022/05/01 11:33:11;;;;;;;10.60;7.30;;;17.60;81.80;;;;;;4972708;28;20186;-75
2022/05/01 11:35:54;;;;;;;10.33;6.37;;;17.50;85.20;;;;;;4969537;28;20457;-77
2022/05/01 11:38:29;;;;;;;11.33;6.53;;;17.60;82.50;;;;;;4969819;28;20446;-75
2022/05/01 11:40:57;;;;;;;13.00;7.50;;;17.90;79.70;;;;;;4964744;28;20457;-74
2022/05/01 11:43:23;;;;;;;12.37;6.23;;;18.30;80.40;;;;;;4966056;28;20536;-75
2022/05/01 11:45:49;;;;;;;10.03;6.63;;;18.30;79.80;;;;;;4969075;28;20925;-74
2022/05/01 11:48:17;;;;;;;10.47;5.70;;;18.40;82.00;;;;;;4965155;28;20183;-75
2022/05/01 11:50:44;;;;;;;11.40;6.90;;;18.50;79.70;;;;;;4965165;28;20446;-76
2022/05/01 11:53:20;;;;;;;11.93;5.60;;;18.60;77.30;;;;;;4967063;28;20444;-75
2022/05/01 12:04:23;;;;;;;8.00;5.73;;;18.60;78.60;;;;;;4953282;28;20564;-75
2022/05/01 12:06:55;;;;;;;6.63;5.20;;;18.20;78.70;;;;;;4963732;28;20430;-74
2022/05/01 12:09:25;;;;;;;6.60;5.70;;;17.90;80.20;;;;;;4960484;28;20887;-75
2022/05/01 12:11:50;;;;;;;10.53;6.10;;;17.90;77.10;;;;;;4969461;28;20453;-74
2022/05/01 12:14:16;;;;;;;9.07;5.53;;;17.70;78.90;;;;;;4964924;28;20439;-74
2022/05/01 12:16:43;;;;;;;10.63;5.90;;;18.00;78.60;;;;;;4968262;28;20565;-75
2022/05/01 12:19:10;;;;;;;8.80;6.50;;;18.00;79.60;;;;;;4968011;28;20639;-72
2022/05/01 12:21:36;;;;;;;7.37;5.67;;;18.10;79.80;;;;;;4964824;28;20438;-75
2022/05/01 12:24:12;;;;;;;10.97;5.80;;;18.30;83.20;;;;;;4964833;28;20450;-72
2022/05/01 12:26:49;;;;;;;8.80;5.57;;;18.10;81.30;;;;;;4968199;28;20174;-72
2022/05/01 12:29:15;;;;;;;8.03;5.50;;;18.00;84.10;;;;;;4959608;28;20441;-72
2022/05/01 12:32:07;;;;;;;9.43;6.53;;;17.90;83.10;;;;;;4950712;29;20466;-72
2022/05/01 12:34:38;;;;;;;7.40;5.87;;;18.10;79.20;;;;;;4964232;28;20537;-73
2022/05/01 12:37:12;;;;;;;6.77;5.70;;;18.20;77.50;;;;;;4968293;28;20438;-72
2022/05/01 12:39:39;;;;;;;7.50;4.90;;;17.80;78.40;;;;;;4966280;28;20417;-72
2022/05/01 12:45:16;;;;;;;6.47;5.57;;;18.10;82.90;;;;;;4961785;28;20394;-72
2022/05/01 12:47:51;;;;;;;8.13;4.83;;;18.30;78.70;;;;;;4959634;28;20431;-76
2022/05/01 12:50:19;;;;;;;8.17;5.20;;;18.30;75.80;;;;;;4966532;28;20409;-75
2022/05/01 12:52:53;;;;;;;9.97;4.90;;;18.80;75.80;;;;;;4975578;28;20457;-73
2022/05/01 12:55:21;;;;;;;12.07;5.40;;;18.30;80.60;;;;;;4975336;28;20433;-72
2022/05/01 12:57:55;;;;;;;7.60;5.70;;;18.10;82.00;;;;;;4975138;28;20461;-72
2022/05/01 13:00:40;;;;;;;7.50;5.70;;;17.70;78.70;;;;;;4975581;28;20948;-72
2022/05/01 13:03:21;;;;;;;6.80;4.90;;;17.80;77.90;;;;;;4974399;28;21039;-72
2022/05/01 13:06:07;;;;;;;5.30;4.80;;;17.20;76.50;;;;;;4975025;28;20770;-75
2022/05/01 13:08:37;;;;;;;6.73;4.57;;;17.60;83.20;;;;;;4975000;28;20401;-72
2022/05/01 13:11:26;;;;;;;13.00;5.33;;;17.90;81.80;;;;;;4975447;28;20460;-72
2022/05/01 13:14:09;;;;;;;7.67;4.90;;;18.10;82.00;;;;;;4975513;28;20481;-72
2022/05/01 13:16:34;;;;;;;7.63;5.17;;;18.20;78.90;;;;;;4975542;28;20400;-72
2022/05/01 13:19:03;;;;;;;6.03;5.40;;;18.30;79.90;;;;;;4973313;28;20497;-72
2022/05/01 13:21:31;;;;;;;8.03;4.97;;;18.20;79.50;;;;;;4956015;29;20194;-72
2022/05/01 13:24:15;;;;;;;8.60;4.53;;;17.70;77.90;;;;;;4955914;28;20849;-73
2022/05/01 13:26:41;;;;;;;8.10;5.70;;;17.80;81.50;;;;;;4956013;29;20454;-73
2022/05/01 13:29:09;;;;;;;12.77;5.10;;;17.20;80.30;;;;;;4955107;28;20415;-73
2022/05/01 13:31:42;;;;;;;10.00;5.30;;;17.10;81.40;;;;;;4955723;29;20481;-74
2022/05/01 13:34:08;;;;;;;7.93;4.63;;;17.30;84.40;;;;;;4955825;29;20957;-72
2022/05/01 13:36:34;;;;;;;5.43;4.30;;;17.50;84.00;;;;;;4955556;29;20417;-73
2022/05/01 13:39:03;;;;;;;8.60;5.67;;;17.30;83.90;;;;;;4955003;29;20399;-72
2022/05/01 13:46:59;;;;;;;7.00;5.20;;;17.00;81.50;;;;;;4955654;29;20398;-77
2022/05/01 13:49:25;;;;;;;7.83;6.00;;;17.10;81.20;;;;;;4937608;29;20419;-76
2022/05/01 13:51:51;;;;;;;7.13;4.57;;;17.10;80.50;;;;;;4955109;29;20505;-76
2022/05/01 13:54:17;;;;;;;9.30;4.73;;;17.20;80.90;;;;;;4955328;28;20921;-76
2022/05/01 13:56:44;;;;;;;7.27;4.77;;;17.20;79.20;;;;;;4955240;29;20406;-76
2022/05/01 13:59:10;;;;;;;6.90;4.67;;;17.10;82.30;;;;;;4954783;29;20592;-77
2022/05/01 14:01:36;;;;;;;8.20;4.80;;;17.00;81.40;;;;;;4955050;29;20430;-77
2022/05/01 14:04:02;;;;;;;8.13;4.67;;;17.00;81.50;;;;;;4954860;29;20466;-77
2022/05/01 14:06:28;;;;;;;5.50;4.60;;;17.00;83.00;;;;;;4955171;29;20198;-76
2022/05/01 14:08:54;;;;;;;9.00;5.70;;;16.90;81.00;;;;;;4937259;29;20454;-76
2022/05/01 14:11:20;;;;;;;6.73;4.80;;;16.90;84.60;;;;;;4937397;29;20238;-77
2022/05/01 14:13:45;;;;;;;6.07;4.67;;;16.90;86.10;;;;;;4955018;28;20191;-75
2022/05/01 14:16:11;;;;;;;7.77;4.97;;;16.80;83.20;;;;;;4954799;29;20423;-77
2022/05/01 14:18:41;;;;;;;6.13;4.07;;;16.80;85.10;;;;;;4953941;29;20171;-77
2022/05/01 14:21:06;;;;;;;8.70;5.33;;;16.70;85.40;;;;;;4954745;28;20194;-77
2022/05/01 14:23:39;;;;;;;10.37;5.10;;;16.60;83.00;;;;;;4954640;29;20532;-76
2022/05/01 14:26:05;;;;;;;5.30;3.87;;;16.50;80.70;;;;;;4954742;29;20206;-76
2022/05/01 14:28:31;;;;;;;11.70;5.00;;;16.50;83.40;;;;;;4953955;29;20415;-77
2022/05/01 14:31:20;;;;;;;5.17;4.60;;;16.50;84.30;;;;;;4954579;29;20438;-77
2022/05/01 14:34:05;;;;;;;6.63;4.87;;;16.40;85.10;;;;;;4934940;29;20217;-77
2022/05/01 14:36:35;;;;;;;6.50;4.20;;;16.40;84.60;;;;;;4954400;29;20422;-77
2022/05/01 14:39:13;;;;;;;5.40;4.67;;;16.30;84.70;;;;;;4953823;29;20465;-78
2022/05/01 14:41:41;;;;;;;7.40;4.57;;;16.30;86.50;;;;;;4936554;28;20969;-76
2022/05/01 14:44:09;;;;;;;6.83;4.03;;;16.10;86.60;;;;;;4973717;28;20467;-77
2022/05/01 14:46:49;;;;;;;7.23;4.70;;;16.00;87.80;;;;;;4973767;28;20410;-77
2022/05/01 14:49:33;;;;;;;6.13;4.27;;;15.80;86.60;;;;;;4972970;28;20410;-77
2022/05/01 14:52:00;;;;;;;8.43;4.90;;;15.90;86.80;;;;;;4973640;28;20421;-78
2022/05/01 14:54:31;;;;;;;7.97;4.90;;;15.90;87.00;;;;;;4970348;28;20426;-77
2022/05/01 14:56:59;;;;;;;7.37;4.60;;;16.00;87.20;;;;;;4973559;28;20931;-76
2022/05/01 15:07:52;;;;;;;4.80;3.90;;;16.30;81.40;;;;;;4953586;29;20482;-76
2022/05/01 15:10:19;;;;;;;5.50;4.23;;;16.30;84.60;;;;;;4944013;28;20424;-77
2022/05/01 15:12:45;;;;;;;11.33;4.33;;;16.20;84.40;;;;;;4973428;28;20405;-77
2022/05/01 15:15:11;;;;;;;7.83;3.90;;;16.00;85.30;;;;;;4957010;28;20497;-77
2022/05/01 15:17:40;;;;;;;4.13;3.70;;;15.90;82.60;;;;;;4965596;28;20182;-75
2022/05/01 15:20:20;;;;;;;7.13;3.67;;;15.80;82.00;;;;;;4950477;28;20185;-74
2022/05/01 15:23:01;;;;;;;6.33;3.93;;;15.70;81.80;;;;;;4961535;28;21027;-72
2022/05/01 15:25:33;;;;;;;5.07;3.80;;;15.70;85.90;;;;;;4964746;28;20501;-73
2022/05/01 15:28:11;;;;;;;4.60;3.33;;;15.70;84.20;;;;;;4960305;28;20417;-72
2022/05/01 15:30:41;;;;;;;5.17;3.50;;;15.80;84.10;;;;;;4959539;28;20437;-73
2022/05/01 15:36:08;;;;;;;4.83;3.50;;;16.00;82.70;;;;;;4961775;28;20425;-74
2022/05/01 15:38:54;;;;;;;4.63;3.53;;;16.00;80.60;;;;;;4967667;28;20444;-73
2022/05/01 15:41:54;;;;;;;4.83;3.40;;;16.10;85.70;;;;;;4961252;28;20837;-74
2022/05/01 15:44:23;;;;;;;7.80;3.47;;;16.00;84.40;;;;;;4963721;28;20454;-76
2022/05/01 15:46:58;;;;;;;4.37;3.70;;;16.00;83.60;;;;;;4956498;28;20437;-74
2022/05/01 15:55:00;;;;;;;7.67;3.50;;;16.00;81.50;;;;;;4968615;28;20837;-77
2022/05/01 15:57:30;;;;;;;5.07;3.47;;;16.00;79.40;;;;;;4971167;28;20413;-76
2022/05/01 15:59:57;;;;;;;4.67;3.50;;;16.00;81.10;;;;;;4977214;28;20413;-78
2022/05/01 16:02:24;;;;;;;10.80;3.97;;;15.80;85.50;;;;;;4976259;28;20433;-76
2022/05/01 16:04:52;;;;;;;3.80;3.30;;;15.70;83.30;;;;;;4977101;28;20441;-76
2022/05/01 16:07:26;;;;;;;7.03;4.37;;;15.70;85.70;;;;;;4967653;28;20419;-78
2022/05/01 16:09:53;;;;;;;8.10;4.30;;;15.70;87.50;;;;;;4942548;29;20454;-78
2022/05/01 17:10:03;;;;;;;4.63;3.87;;;14.20;93.80;;;;;;4894080;29;20488;-77
2022/05/01 17:16:34;;;;;;;5.53;4.90;;;14.00;96.30;;;;;;4889986;29;20960;-79
2022/05/01 17:29:41;;;;;;;7.80;5.10;;;13.70;96.30;;;;;;4857875;29;22148;-76
2022/05/01 17:35:57;;;;;;;5.93;5.33;;;13.30;96.30;;;;;;4859245;29;20403;-78
2022/05/01 17:38:24;;;;;;;12.37;6.00;;;12.90;96.30;;;;;;4858872;29;20986;-78
2022/05/01 17:40:51;;;;;;;6.50;4.97;;;12.80;96.30;;;;;;4916611;29;20439;-77
2022/05/01 17:43:25;;;;;;;9.03;4.50;;;12.60;96.30;;;;;;4936670;29;20467;-78
2022/05/01 17:45:57;;;;;;;10.57;4.90;;;12.40;96.30;;;;;;4936935;29;20900;-78
2022/05/01 17:48:24;;;;;;;10.30;5.43;;;12.30;96.30;;;;;;4936195;29;21105;-78
2022/05/01 18:31:26;;;;;;;9.97;5.60;;;10.30;96.30;;;;;;4942251;29;20431;-75
2022/05/01 18:33:57;;;;;;;21.03;5.57;;;10.00;96.30;;;;;;4931111;29;20723;-74
2022/05/01 18:36:42;;;;;;;5.83;4.90;;;9.80;96.30;;;;;;4935230;29;20400;-76
2022/05/01 18:39:10;;;;;;;10.10;5.80;;;9.70;96.30;;;;;;4949476;29;20405;-73
2022/05/01 18:41:39;;;;;;;9.47;5.97;;;9.40;96.30;;;;;;4944087;29;20478;-74
2022/05/01 18:44:08;;;;;;;6.77;5.40;;;9.30;96.30;;;;;;4935114;29;20470;-74
2022/05/01 18:46:36;;;;;;;5.97;5.37;;;9.30;96.30;;;;;;4937705;29;20490;-74
2022/05/01 18:49:06;;;;;;;8.23;5.87;;;9.20;96.30;;;;;;4936603;29;20407;-76
2022/05/01 18:51:35;;;;;;;7.77;5.20;;;9.20;96.30;;;;;;4942901;29;20461;-74
2022/05/01 18:54:06;;;;;;;9.67;6.03;;;9.00;96.30;;;;;;4947995;29;21104;-78
2022/05/01 18:56:33;;;;;;;9.67;5.57;;;9.00;96.30;;;;;;4926993;29;21069;-78
2022/05/01 18:59:02;;;;;;;12.20;5.47;;;8.90;96.30;;;;;;4927537;29;20514;-78
2022/05/01 19:01:29;;;;;;;5.70;4.50;;;8.80;96.30;;;;;;4943470;29;20431;-77
2022/05/01 19:03:55;;;;;;;8.57;5.77;;;8.80;96.30;;;;;;4945843;29;20453;-74
2022/05/01 19:06:43;;;;;;;9.33;5.50;;;8.80;96.30;;;;;;4944531;29;20415;-78
2022/05/01 19:09:25;;;;;;;9.00;5.30;;;8.90;96.30;;;;;;4935912;29;20198;-77
2022/05/01 19:12:15;;;;;;;7.60;5.30;;;9.00;96.30;;;;;;4936959;29;20436;-76
2022/05/01 19:15:04;;;;;;;15.73;5.40;;;8.90;96.30;;;;;;4934726;29;20411;-77
2022/05/01 19:17:42;;;;;;;7.60;5.20;;;9.00;96.30;;;;;;4934573;29;20916;-78
2022/05/01 19:20:30;;;;;;;9.17;5.47;;;8.90;96.30;;;;;;4934685;29;20570;-75
2022/05/01 19:26:18;;;;;;;9.87;5.17;;;8.90;96.30;;;;;;4939300;29;20537;-78
2022/05/01 19:26:25;;;;;;;9.70;6.30;;;8.90;96.30;;;;;;4938544;28;20415;-78
2022/05/01 19:29:06;;;;;;;7.43;5.20;;;8.90;96.30;;;;;;4959902;29;20430;-77
2022/05/01 19:31:58;;;;;;;7.37;5.23;;;8.80;96.30;;;;;;4946312;29;20440;-78
2022/05/01 19:34:49;;;;;;;7.27;4.00;;;8.80;96.30;;;;;;4942953;29;20418;-78
2022/05/01 19:37:36;;;;;;;6.60;4.20;;;8.80;96.30;;;;;;4943233;29;20438;-78
2022/05/01 19:40:07;;;;;;;9.83;4.83;;;8.70;96.30;;;;;;4941041;29;20411;-78
2022/05/01 19:42:49;;;;;;;15.03;5.73;;;8.60;96.30;;;;;;4940847;29;20430;-78
2022/05/01 19:45:48;;;;;;;9.50;4.80;;;8.60;96.30;;;;;;4941408;29;20415;-78
2022/05/01 19:54:17;;;;;;;8.37;5.03;;;8.60;96.30;;;;;;4941251;29;20450;-79
2022/05/01 19:56:44;;;;;;;6.90;5.07;;;8.70;96.30;;;;;;4941269;29;20423;-78
2022/05/01 19:59:12;;;;;;;9.20;5.10;;;8.70;96.30;;;;;;4941382;29;20443;-78
2022/05/01 20:01:38;;;;;;;6.27;4.20;;;8.80;96.30;;;;;;4941750;29;20437;-77
2022/05/01 20:04:04;;;;;;;5.23;4.27;;;8.70;96.30;;;;;;4941894;29;20898;-79
2022/05/01 20:06:33;;;;;;;10.90;4.60;;;8.90;96.30;;;;;;4924325;29;20182;-78
2022/05/01 20:08:59;;;;;;;12.57;4.57;;;9.00;96.30;;;;;;4941426;29;20506;-78
2022/05/01 20:11:26;;;;;;;9.17;4.50;;;9.00;96.30;;;;;;4948365;29;20503;-78
2022/05/01 20:13:53;;;;;;;12.00;5.43;;;8.90;96.30;;;;;;4960451;28;20211;-78
2022/05/01 20:16:44;;;;;;;9.10;4.53;;;8.80;96.30;;;;;;4961258;29;20899;-78
2022/05/01 20:19:29;;;;;;;7.93;4.63;;;8.70;96.30;;;;;;4960881;29;20406;-78
2022/05/01 20:22:17;;;;;;;8.50;4.57;;;8.60;96.30;;;;;;4943938;29;20876;-78